Time;durP1;ratioP1;P1;durP2;ratioP2;P2;SDS_P1;SDS_P2;PMS_P1;PMS_P2;Temp;Humidity;BMP_temperature;BMP_pressure;BME280_temperature;BME280_humidity;BME280_pressure;Samples;Min_cycle;Max_cycle;Signal;HPM_P1;HPM_P2
2022/03/04 00:01:25;;;;;;;34.57;20.53;;;7.90;72.50;;;;;;6222077;23;20147;-90
2022/03/04 00:03:58;;;;;;;34.53;19.77;;;7.70;72.20;;;;;;6220287;23;20140;-94
2022/03/04 00:06:26;;;;;;;35.87;20.83;;;7.80;72.10;;;;;;6220163;23;20225;-90
2022/03/04 00:08:55;;;;;;;33.13;19.73;;;7.80;72.10;;;;;;6220492;23;20154;-89
2022/03/04 00:11:22;;;;;;;37.40;20.87;;;7.80;72.20;;;;;;6220388;23;20151;-90
2022/03/04 00:13:47;;;;;;;31.83;19.97;;;7.90;71.90;;;;;;6220412;23;20154;-90
2022/03/04 00:16:19;;;;;;;32.73;19.90;;;7.90;72.30;;;;;;6220314;23;20147;-90
2022/03/04 00:19:06;;;;;;;33.50;20.07;;;7.90;72.50;;;;;;6220069;23;20577;-90
2022/03/04 00:21:41;;;;;;;40.10;21.17;;;7.90;72.90;;;;;;6220481;23;20633;-90
2022/03/04 00:24:09;;;;;;;31.30;19.13;;;7.90;73.00;;;;;;6220527;23;20158;-89
2022/03/04 00:26:37;;;;;;;31.30;20.37;;;7.80;73.30;;;;;;6233862;23;20208;-89
2022/03/04 00:29:08;;;;;;;37.37;20.13;;;8.00;72.50;;;;;;6239101;22;20198;-89
2022/03/04 00:31:38;;;;;;;30.80;19.07;;;8.00;72.50;;;;;;6251076;22;20597;-89
2022/03/04 00:34:11;;;;;;;32.60;19.60;;;7.90;73.10;;;;;;6250168;22;20149;-88
2022/03/04 00:36:41;;;;;;;33.00;19.00;;;7.80;73.00;;;;;;6250499;22;20155;-90
2022/03/04 00:39:10;;;;;;;32.70;18.40;;;7.80;72.70;;;;;;6250302;22;20218;-89
2022/03/04 00:41:39;;;;;;;30.43;17.97;;;7.80;72.80;;;;;;6250531;22;20199;-89
2022/03/04 00:44:06;;;;;;;30.70;17.10;;;7.70;73.00;;;;;;6250705;22;20174;-89
2022/03/04 00:46:33;;;;;;;28.37;17.37;;;7.70;72.90;;;;;;6250506;22;20494;-89
2022/03/04 00:48:59;;;;;;;29.77;17.10;;;7.60;73.00;;;;;;6250795;22;20142;-89
2022/03/04 00:51:25;;;;;;;25.03;16.60;;;7.70;72.80;;;;;;6250619;22;20166;-88
2022/03/04 00:53:54;;;;;;;38.97;18.27;;;7.60;73.20;;;;;;6250309;22;20156;-90
2022/03/04 00:56:23;;;;;;;26.50;16.47;;;7.50;73.50;;;;;;6250699;22;20479;-89
2022/03/04 00:58:48;;;;;;;30.20;17.17;;;7.50;73.70;;;;;;6250397;22;20606;-89
2022/03/04 01:01:17;;;;;;;28.93;17.63;;;7.40;73.70;;;;;;6250437;22;20154;-89
2022/03/04 01:03:46;;;;;;;32.63;17.63;;;7.40;74.00;;;;;;6250253;22;20605;-89
2022/03/04 01:06:15;;;;;;;30.33;17.60;;;7.40;74.00;;;;;;6250134;22;20713;-89
2022/03/04 01:08:43;;;;;;;31.30;17.27;;;7.40;74.00;;;;;;6250535;22;20161;-89
2022/03/04 01:11:15;;;;;;;33.07;18.43;;;7.40;74.10;;;;;;6250445;22;20145;-89
2022/03/04 01:13:44;;;;;;;31.53;17.00;;;7.50;74.60;;;;;;6250399;22;20594;-89
2022/03/04 01:16:13;;;;;;;27.70;17.20;;;7.60;75.00;;;;;;6250495;22;20229;-89
2022/03/04 01:18:38;;;;;;;26.43;15.93;;;7.40;75.10;;;;;;6250010;22;20184;-89
2022/03/04 01:21:05;;;;;;;30.40;17.00;;;7.60;74.00;;;;;;6250734;22;20209;-90
2022/03/04 01:23:34;;;;;;;30.70;17.73;;;7.30;74.50;;;;;;6250658;22;20171;-89
2022/03/04 01:26:03;;;;;;;27.30;16.67;;;7.50;74.40;;;;;;6250434;22;20576;-89
2022/03/04 01:28:37;;;;;;;28.57;16.83;;;7.30;75.40;;;;;;6250227;22;20204;-88
2022/03/04 01:31:06;;;;;;;28.93;16.47;;;7.20;76.70;;;;;;6250524;22;20195;-89
2022/03/04 01:33:35;;;;;;;27.13;16.33;;;7.20;76.10;;;;;;6250687;22;20206;-89
2022/03/04 01:36:02;;;;;;;31.13;17.20;;;7.10;75.90;;;;;;6250339;22;20182;-90
2022/03/04 01:38:30;;;;;;;31.87;16.47;;;7.30;75.50;;;;;;6249772;22;20567;-90
2022/03/04 01:40:57;;;;;;;31.60;16.87;;;7.30;75.30;;;;;;6250490;22;20173;-89
2022/03/04 01:43:26;;;;;;;26.37;15.43;;;7.30;75.00;;;;;;6250207;22;20566;-89
2022/03/04 01:45:55;;;;;;;29.43;16.47;;;7.30;75.10;;;;;;6250061;22;20153;-88
2022/03/04 01:48:24;;;;;;;25.43;15.40;;;7.10;75.20;;;;;;6250139;22;20232;-91
2022/03/04 01:50:53;;;;;;;25.83;15.60;;;7.30;75.10;;;;;;6250367;22;20473;-89
2022/03/04 01:53:22;;;;;;;27.00;15.87;;;7.20;75.30;;;;;;6250027;22;20139;-89
2022/03/04 01:55:49;;;;;;;31.03;16.23;;;7.10;75.40;;;;;;6250632;22;20595;-89
2022/03/04 01:58:18;;;;;;;26.07;15.37;;;7.00;75.70;;;;;;6250467;22;20578;-89
2022/03/04 02:00:45;;;;;;;26.97;16.27;;;6.90;76.70;;;;;;6249977;22;20154;-89
2022/03/04 02:03:13;;;;;;;28.53;16.23;;;7.10;76.80;;;;;;6250248;22;20302;-89
2022/03/04 02:05:43;;;;;;;28.63;15.17;;;7.10;76.70;;;;;;6250237;22;20150;-89
2022/03/04 02:08:14;;;;;;;25.10;15.20;;;7.10;76.10;;;;;;6252088;22;20146;-89
2022/03/04 02:10:42;;;;;;;25.60;14.73;;;7.10;75.80;;;;;;6252246;22;20243;-89
2022/03/04 02:13:09;;;;;;;26.73;14.97;;;7.20;75.50;;;;;;6252208;22;20152;-89
2022/03/04 02:15:36;;;;;;;27.13;16.17;;;7.00;76.00;;;;;;6252108;22;20150;-89
2022/03/04 02:18:13;;;;;;;27.27;15.50;;;6.90;76.60;;;;;;6253796;22;20157;-89
2022/03/04 02:20:43;;;;;;;27.07;15.83;;;6.90;76.70;;;;;;6255993;22;20165;-89
2022/03/04 02:23:12;;;;;;;24.77;15.07;;;6.90;76.10;;;;;;6252215;22;20578;-89
2022/03/04 02:25:52;;;;;;;28.30;15.07;;;6.70;77.20;;;;;;6251778;22;20158;-89
2022/03/04 02:28:21;;;;;;;22.73;15.27;;;6.70;77.70;;;;;;6251777;22;20571;-87
2022/03/04 02:30:49;;;;;;;26.03;14.83;;;6.70;77.70;;;;;;6251748;22;20174;-89
2022/03/04 02:33:19;;;;;;;24.50;15.07;;;6.80;77.90;;;;;;6251809;22;20141;-88
2022/03/04 02:35:45;;;;;;;25.23;15.23;;;6.60;77.70;;;;;;6251561;22;20236;-89
2022/03/04 02:38:13;;;;;;;27.47;15.27;;;6.60;78.00;;;;;;6251727;22;20149;-89
2022/03/04 02:40:41;;;;;;;27.40;14.80;;;6.60;78.60;;;;;;6251295;22;20172;-89
2022/03/04 02:43:08;;;;;;;24.40;14.90;;;6.50;78.70;;;;;;6251517;22;20150;-89
2022/03/04 02:45:36;;;;;;;25.63;15.27;;;6.60;79.20;;;;;;6251730;22;20677;-89
2022/03/04 02:48:08;;;;;;;27.87;15.90;;;6.50;78.70;;;;;;6251602;22;20157;-90
2022/03/04 02:50:37;;;;;;;24.37;14.50;;;6.50;78.50;;;;;;6251696;22;20199;-89
2022/03/04 02:53:04;;;;;;;25.80;15.00;;;6.40;79.40;;;;;;6251792;22;20153;-90
2022/03/04 02:55:30;;;;;;;26.13;15.60;;;6.20;80.00;;;;;;6251445;22;20154;-90
2022/03/04 02:57:56;;;;;;;23.53;13.73;;;6.30;79.40;;;;;;6251348;22;20159;-89
2022/03/04 03:00:25;;;;;;;27.47;14.03;;;6.20;79.00;;;;;;6251440;22;20182;-89
2022/03/04 03:02:53;;;;;;;24.50;14.77;;;6.30;78.60;;;;;;6251640;22;20625;-89
2022/03/04 03:05:20;;;;;;;24.27;13.90;;;6.40;78.70;;;;;;6251575;22;20150;-88
2022/03/04 03:07:46;;;;;;;29.33;15.77;;;6.30;79.20;;;;;;6264217;22;20154;-88
2022/03/04 03:10:15;;;;;;;30.10;15.43;;;6.30;79.10;;;;;;6265419;22;20445;-89
2022/03/04 03:12:44;;;;;;;23.10;14.57;;;6.00;79.60;;;;;;6251592;22;20164;-89
2022/03/04 03:15:13;;;;;;;26.13;15.50;;;6.00;80.00;;;;;;6251770;22;20224;-89
2022/03/04 03:17:42;;;;;;;25.00;15.10;;;5.90;80.20;;;;;;6251198;22;20182;-88
2022/03/04 03:20:08;;;;;;;24.27;15.03;;;5.80;80.20;;;;;;6251555;22;20641;-88
2022/03/04 03:22:36;;;;;;;25.30;14.90;;;6.00;80.00;;;;;;6251512;22;20146;-90
2022/03/04 03:25:04;;;;;;;30.33;15.33;;;5.90;80.50;;;;;;6251374;22;20162;-89
2022/03/04 03:27:32;;;;;;;28.37;15.40;;;5.70;81.40;;;;;;6251159;22;20149;-89
2022/03/04 03:29:58;;;;;;;24.00;14.10;;;5.70;80.80;;;;;;6251311;22;20179;-90
2022/03/04 03:32:26;;;;;;;28.60;15.47;;;5.90;80.10;;;;;;6251137;22;20150;-90
2022/03/04 03:34:53;;;;;;;26.90;14.90;;;5.90;80.10;;;;;;6251739;22;20533;-89
2022/03/04 03:37:19;;;;;;;26.87;15.43;;;5.80;81.00;;;;;;6251155;22;20612;-89
2022/03/04 03:39:44;;;;;;;28.13;15.10;;;5.80;80.90;;;;;;6251026;22;20192;-90
2022/03/04 03:42:11;;;;;;;25.90;15.00;;;5.70;81.60;;;;;;6250823;22;20146;-89
2022/03/04 03:44:40;;;;;;;27.33;15.20;;;5.60;81.20;;;;;;6251149;22;20176;-89
2022/03/04 03:47:09;;;;;;;29.00;15.57;;;5.50;81.70;;;;;;6251340;22;20142;-90
2022/03/04 03:49:38;;;;;;;24.00;14.00;;;5.50;81.80;;;;;;6251026;22;20153;-90
2022/03/04 03:52:06;;;;;;;26.27;14.13;;;5.50;82.00;;;;;;6251022;22;20163;-90
2022/03/04 03:54:34;;;;;;;24.23;14.20;;;5.40;82.10;;;;;;6251150;22;20147;-89
2022/03/04 03:57:03;;;;;;;23.93;14.73;;;5.50;81.80;;;;;;6250678;22;20148;-89
2022/03/04 03:59:29;;;;;;;24.40;13.63;;;5.40;82.40;;;;;;6251345;22;20557;-89
2022/03/04 04:01:56;;;;;;;26.87;14.30;;;5.20;83.00;;;;;;6251131;22;20297;-89
2022/03/04 04:04:25;;;;;;;22.97;13.70;;;5.20;83.40;;;;;;6251125;22;20151;-90
2022/03/04 04:06:54;;;;;;;22.90;14.30;;;5.30;83.00;;;;;;6251019;22;20168;-89
2022/03/04 04:09:21;;;;;;;25.47;13.63;;;5.30;82.80;;;;;;6250865;22;20173;-88
2022/03/04 04:11:50;;;;;;;27.87;13.87;;;5.30;83.20;;;;;;6250675;22;20141;-89
2022/03/04 04:14:18;;;;;;;25.70;13.93;;;5.20;83.40;;;;;;6250936;22;20172;-89
2022/03/04 04:16:44;;;;;;;24.07;14.57;;;5.20;83.00;;;;;;6250612;22;20206;-89
2022/03/04 04:19:10;;;;;;;21.73;13.17;;;5.30;82.50;;;;;;6250696;22;20257;-88
2022/03/04 04:21:39;;;;;;;22.60;13.60;;;5.30;82.80;;;;;;6250914;22;20163;-89
2022/03/04 04:24:13;;;;;;;25.03;14.43;;;5.20;83.20;;;;;;6250816;22;20149;-88
2022/03/04 04:26:39;;;;;;;26.47;15.07;;;5.00;84.10;;;;;;6250289;22;20498;-89
2022/03/04 04:29:07;;;;;;;24.63;13.23;;;4.90;85.20;;;;;;6250682;22;20160;-89
2022/03/04 04:31:36;;;;;;;22.60;13.60;;;4.90;85.60;;;;;;6250468;22;20612;-89
2022/03/04 04:34:05;;;;;;;25.33;13.47;;;4.80;85.90;;;;;;6250897;22;20157;-89
2022/03/04 04:36:34;;;;;;;26.33;13.83;;;4.80;85.70;;;;;;6250406;22;20151;-89
2022/03/04 04:39:00;;;;;;;22.90;13.33;;;5.00;84.20;;;;;;6250972;22;20187;-89
2022/03/04 04:41:29;;;;;;;25.27;13.93;;;5.10;83.30;;;;;;6250398;22;20198;-89
2022/03/04 04:43:57;;;;;;;21.57;14.00;;;5.10;83.50;;;;;;6250494;22;20499;-89
2022/03/04 04:46:25;;;;;;;22.70;13.73;;;5.10;83.50;;;;;;6250708;22;20148;-89
2022/03/04 04:48:54;;;;;;;20.87;12.77;;;5.00;83.70;;;;;;6250475;22;20150;-89
2022/03/04 04:51:22;;;;;;;23.13;13.27;;;5.00;84.60;;;;;;6250739;22;20201;-89
2022/03/04 04:53:50;;;;;;;23.70;13.47;;;4.90;85.10;;;;;;6250315;22;20149;-89
2022/03/04 04:56:20;;;;;;;22.30;13.73;;;4.90;84.50;;;;;;6250583;22;20230;-89
2022/03/04 04:58:47;;;;;;;22.60;13.33;;;5.00;84.70;;;;;;6250435;22;20172;-89
2022/03/04 05:01:19;;;;;;;24.47;13.90;;;4.90;84.70;;;;;;6250518;22;20657;-89
2022/03/04 05:03:47;;;;;;;19.70;12.40;;;5.00;84.60;;;;;;6250780;22;20605;-89
2022/03/04 05:06:17;;;;;;;23.33;13.00;;;5.00;84.90;;;;;;6250458;22;20178;-89
2022/03/04 05:08:46;;;;;;;22.27;12.90;;;5.00;84.30;;;;;;6250102;22;20188;-89
2022/03/04 05:11:12;;;;;;;21.70;13.10;;;5.00;84.40;;;;;;6250541;22;20174;-89
2022/03/04 05:13:41;;;;;;;21.03;13.20;;;5.00;84.80;;;;;;6250176;22;20214;-89
2022/03/04 05:16:07;;;;;;;20.20;12.47;;;5.10;84.00;;;;;;6250677;22;20172;-89
2022/03/04 05:18:36;;;;;;;21.53;13.03;;;5.00;83.80;;;;;;6250670;22;20206;-90
2022/03/04 05:21:04;;;;;;;22.27;12.10;;;4.90;84.20;;;;;;6250257;22;20564;-89
2022/03/04 05:26:44;;;;;;;21.80;12.40;;;4.90;85.00;;;;;;6126065;23;20500;-89
2022/03/04 05:29:13;;;;;;;23.10;12.27;;;4.90;85.40;;;;;;6234809;22;20159;-88
2022/03/04 05:31:42;;;;;;;25.70;13.03;;;4.80;84.90;;;;;;6250066;22;20163;-89
2022/03/04 05:34:12;;;;;;;27.07;13.93;;;4.80;85.20;;;;;;6250495;22;20141;-89
2022/03/04 05:36:41;;;;;;;24.83;13.53;;;4.80;85.20;;;;;;6250346;22;20158;-89
2022/03/04 05:39:07;;;;;;;24.40;12.87;;;4.90;84.50;;;;;;6249871;22;20206;-89
2022/03/04 05:41:36;;;;;;;21.03;13.10;;;4.80;85.00;;;;;;6251058;22;20146;-88
2022/03/04 05:44:06;;;;;;;25.97;13.23;;;4.60;85.20;;;;;;6252175;22;20162;-89
2022/03/04 05:46:32;;;;;;;22.00;13.50;;;4.60;86.10;;;;;;6252130;22;20150;-89
2022/03/04 05:49:02;;;;;;;20.13;13.10;;;4.50;87.20;;;;;;6252412;22;20148;-89
2022/03/04 05:51:29;;;;;;;25.43;12.90;;;4.60;86.80;;;;;;6252612;22;20158;-88
2022/03/04 05:53:55;;;;;;;21.37;13.03;;;4.50;86.70;;;;;;6264426;22;20148;-88
2022/03/04 05:56:23;;;;;;;20.53;12.30;;;4.60;86.10;;;;;;6261239;22;20239;-88
2022/03/04 05:58:50;;;;;;;23.03;13.23;;;4.70;85.80;;;;;;6252288;22;20627;-87
2022/03/04 06:01:17;;;;;;;21.47;13.17;;;4.80;85.60;;;;;;6252375;22;20197;-87
2022/03/04 06:03:44;;;;;;;21.13;12.90;;;4.70;85.60;;;;;;6251750;22;20586;-89
2022/03/04 06:06:30;;;;;;;23.03;12.57;;;4.70;86.00;;;;;;6252258;22;20147;-88
2022/03/04 06:08:56;;;;;;;26.10;12.73;;;4.60;86.30;;;;;;6252288;22;20159;-89
2022/03/04 06:11:25;;;;;;;22.20;13.70;;;4.50;86.80;;;;;;6252243;22;20144;-89
2022/03/04 06:13:53;;;;;;;24.83;13.47;;;4.80;85.90;;;;;;6251872;22;20148;-89
2022/03/04 06:16:22;;;;;;;23.60;13.40;;;4.70;85.80;;;;;;6252457;22;20144;-89
2022/03/04 06:18:51;;;;;;;21.43;12.00;;;4.60;85.90;;;;;;6251735;22;20175;-89
2022/03/04 06:21:19;;;;;;;24.90;13.90;;;4.60;86.40;;;;;;6251714;22;20169;-88
2022/03/04 06:23:45;;;;;;;21.23;12.53;;;4.50;86.40;;;;;;6251860;22;20143;-89
2022/03/04 06:26:11;;;;;;;23.10;12.97;;;4.40;86.50;;;;;;6251827;22;20160;-89
2022/03/04 06:28:39;;;;;;;21.63;12.73;;;4.50;86.50;;;;;;6252114;22;20143;-89
2022/03/04 06:31:08;;;;;;;24.63;13.60;;;4.50;86.60;;;;;;6251501;22;20470;-89
2022/03/04 06:33:55;;;;;;;22.77;13.17;;;4.50;87.50;;;;;;6252087;22;20239;-88
2022/03/04 06:36:25;;;;;;;20.37;11.97;;;4.50;87.80;;;;;;6251732;22;20171;-88
2022/03/04 06:38:54;;;;;;;24.03;13.43;;;4.40;88.40;;;;;;6251466;22;20671;-88
2022/03/04 06:41:21;;;;;;;23.47;13.47;;;4.40;88.40;;;;;;6251761;22;20152;-88
2022/03/04 06:43:49;;;;;;;22.37;12.67;;;4.40;87.90;;;;;;6251617;22;20220;-87
2022/03/04 06:46:16;;;;;;;25.93;12.63;;;4.40;87.90;;;;;;6251369;22;20601;-88
2022/03/04 06:48:44;;;;;;;20.23;13.03;;;4.40;87.90;;;;;;6251784;22;20476;-87
2022/03/04 06:51:13;;;;;;;22.33;13.63;;;4.50;88.20;;;;;;6251301;22;20181;-88
2022/03/04 06:53:41;;;;;;;20.90;12.33;;;4.50;88.10;;;;;;6251107;22;20625;-89
2022/03/04 06:56:10;;;;;;;28.13;14.13;;;4.40;88.10;;;;;;6251505;22;20150;-88
2022/03/04 06:58:40;;;;;;;29.50;13.87;;;4.50;88.10;;;;;;6251388;22;20572;-89
2022/03/04 07:01:08;;;;;;;23.77;14.20;;;4.70;87.60;;;;;;6251517;22;20602;-88
2022/03/04 07:03:37;;;;;;;24.27;14.07;;;4.70;87.90;;;;;;6251678;22;20148;-89
2022/03/04 07:06:04;;;;;;;28.03;13.90;;;4.60;88.60;;;;;;6251517;22;20149;-89
2022/03/04 07:08:36;;;;;;;21.30;13.37;;;4.50;89.10;;;;;;6251553;22;20144;-87
2022/03/04 07:11:07;;;;;;;24.07;13.93;;;4.40;90.00;;;;;;6251467;22;20591;-88
2022/03/04 07:13:33;;;;;;;27.53;13.37;;;4.60;89.30;;;;;;6251494;22;20152;-88
2022/03/04 07:16:03;;;;;;;22.40;13.60;;;4.70;88.70;;;;;;6252036;22;20466;-89
2022/03/04 07:18:31;;;;;;;22.03;13.90;;;4.80;88.10;;;;;;6251541;22;20156;-90
2022/03/04 07:21:01;;;;;;;27.97;13.30;;;4.80;88.00;;;;;;6251292;22;20193;-90
2022/03/04 07:23:29;;;;;;;23.80;12.97;;;4.90;87.80;;;;;;6252702;22;20178;-90
2022/03/04 07:25:57;;;;;;;25.40;13.33;;;5.00;87.50;;;;;;6252092;22;20603;-90
2022/03/04 07:28:26;;;;;;;26.37;13.60;;;5.00;87.20;;;;;;6251975;22;20225;-90
2022/03/04 07:30:51;;;;;;;23.40;12.90;;;5.00;87.40;;;;;;6251342;22;20169;-91
2022/03/04 07:33:20;;;;;;;25.73;13.73;;;4.90;87.60;;;;;;6251589;22;20671;-90
2022/03/04 07:35:49;;;;;;;26.67;13.47;;;5.00;87.80;;;;;;6251712;22;20139;-91
2022/03/04 07:38:18;;;;;;;23.83;13.47;;;5.00;88.10;;;;;;6251716;22;20177;-91
2022/03/04 07:40:49;;;;;;;25.37;13.37;;;5.10;87.60;;;;;;6251563;22;20218;-90
2022/03/04 07:43:15;;;;;;;22.37;13.50;;;5.30;87.30;;;;;;6252039;22;20172;-90
2022/03/04 07:45:48;;;;;;;23.90;13.00;;;5.40;86.50;;;;;;6255737;22;20605;-90
2022/03/04 07:48:16;;;;;;;24.57;13.67;;;5.40;86.10;;;;;;6251405;22;20144;-91
2022/03/04 07:50:47;;;;;;;23.97;14.00;;;5.70;84.90;;;;;;6251742;22;20515;-91
2022/03/04 07:53:15;;;;;;;26.07;13.73;;;5.70;84.70;;;;;;6251769;22;20181;-91
2022/03/04 07:55:42;;;;;;;24.80;13.40;;;5.80;84.90;;;;;;6251409;22;20148;-91
2022/03/04 07:58:09;;;;;;;26.97;14.13;;;5.60;85.70;;;;;;6251590;22;20177;-90
2022/03/04 08:00:39;;;;;;;23.20;13.87;;;5.70;85.00;;;;;;6251237;22;20685;-91
2022/03/04 08:03:08;;;;;;;25.67;13.27;;;5.80;84.70;;;;;;6251801;22;20148;-88
2022/03/04 08:05:35;;;;;;;23.07;13.33;;;5.90;84.50;;;;;;6250988;22;20585;-91
2022/03/04 08:08:02;;;;;;;27.17;14.20;;;6.00;84.40;;;;;;6251401;22;20211;-91
2022/03/04 08:10:30;;;;;;;22.20;12.67;;;6.00;84.30;;;;;;6278477;22;20136;-89
2022/03/04 08:12:59;;;;;;;24.00;14.00;;;6.10;84.00;;;;;;6251370;22;20183;-90
2022/03/04 08:15:26;;;;;;;23.23;14.17;;;6.20;84.00;;;;;;6251324;22;20149;-90
2022/03/04 08:17:55;;;;;;;22.37;12.83;;;6.20;84.10;;;;;;6251218;22;20234;-90
2022/03/04 08:20:22;;;;;;;25.83;13.20;;;6.30;83.90;;;;;;6251177;22;20184;-90
2022/03/04 08:22:51;;;;;;;27.83;13.53;;;6.30;83.20;;;;;;6251328;22;20569;-90
2022/03/04 08:25:20;;;;;;;24.03;13.20;;;6.50;82.90;;;;;;6250863;22;20158;-90
2022/03/04 08:27:47;;;;;;;26.07;13.40;;;6.50;82.40;;;;;;6251656;22;20140;-90
2022/03/04 08:30:13;;;;;;;25.70;12.87;;;6.80;81.60;;;;;;6248136;22;20167;-90
2022/03/04 08:32:40;;;;;;;27.03;13.47;;;6.90;81.40;;;;;;6250919;22;20200;-91
2022/03/04 08:35:14;;;;;;;20.53;12.37;;;6.90;81.20;;;;;;6251064;22;20160;-90
2022/03/04 08:37:40;;;;;;;22.30;13.03;;;6.90;81.90;;;;;;6251488;22;20147;-90
2022/03/04 08:40:12;;;;;;;24.70;13.27;;;7.00;81.60;;;;;;6252070;22;20233;-91
2022/03/04 08:42:42;;;;;;;26.97;13.23;;;7.20;80.70;;;;;;6262421;22;20166;-91
2022/03/04 08:45:09;;;;;;;22.90;13.00;;;7.30;80.60;;;;;;6270312;22;20173;-91
2022/03/04 08:47:43;;;;;;;22.53;12.73;;;7.40;79.80;;;;;;6256267;22;20145;-91
2022/03/04 08:50:11;;;;;;;20.70;12.57;;;7.50;79.60;;;;;;6251354;22;20158;-90
2022/03/04 08:52:40;;;;;;;20.77;12.63;;;7.60;79.30;;;;;;6250925;22;20207;-89
2022/03/04 08:55:14;;;;;;;18.23;11.47;;;7.70;78.90;;;;;;6251288;22;20206;-90
2022/03/04 08:57:43;;;;;;;21.97;11.37;;;7.70;78.50;;;;;;6250885;22;20230;-89
2022/03/04 09:00:13;;;;;;;25.53;12.30;;;7.90;78.50;;;;;;6250680;22;20527;-89
2022/03/04 09:02:42;;;;;;;21.27;12.10;;;7.90;78.20;;;;;;6250328;22;20154;-90
2022/03/04 09:05:10;;;;;;;21.80;11.53;;;7.90;78.20;;;;;;6250666;22;20180;-90
2022/03/04 09:07:37;;;;;;;25.80;12.83;;;8.00;78.10;;;;;;6250781;22;20173;-91
2022/03/04 09:10:07;;;;;;;21.20;11.87;;;8.00;78.20;;;;;;6251112;22;20176;-91
2022/03/04 09:12:36;;;;;;;19.00;12.37;;;7.90;78.20;;;;;;6251590;22;20200;-91
2022/03/04 09:15:04;;;;;;;19.33;12.13;;;8.10;78.40;;;;;;6251270;22;20157;-89
2022/03/04 09:17:33;;;;;;;20.30;11.70;;;8.10;77.90;;;;;;6253985;22;20185;-90
2022/03/04 09:20:04;;;;;;;19.40;11.87;;;8.20;77.90;;;;;;6253981;22;20199;-90
2022/03/04 09:22:29;;;;;;;23.90;12.00;;;8.30;77.40;;;;;;6253434;22;20146;-88
2022/03/04 09:24:55;;;;;;;20.27;12.00;;;8.30;77.80;;;;;;6253221;22;20600;-90
2022/03/04 09:27:23;;;;;;;22.00;12.73;;;8.50;77.00;;;;;;6253397;22;20157;-90
2022/03/04 09:29:49;;;;;;;21.20;11.37;;;8.40;76.70;;;;;;6252982;22;20165;-91
2022/03/04 09:32:20;;;;;;;18.90;10.57;;;8.40;77.30;;;;;;6253502;22;20165;-92
2022/03/04 09:34:47;;;;;;;16.80;11.50;;;8.60;76.60;;;;;;6253176;22;20160;-91
2022/03/04 09:37:15;;;;;;;21.77;11.53;;;8.70;75.50;;;;;;6253652;22;20179;-91
2022/03/04 09:39:42;;;;;;;19.13;11.70;;;8.70;76.00;;;;;;6252836;22;20341;-91
2022/03/04 09:42:11;;;;;;;18.83;11.47;;;8.70;75.70;;;;;;6253359;22;20867;-91
2022/03/04 09:44:40;;;;;;;21.03;11.17;;;8.80;74.90;;;;;;6253261;22;20180;-92
2022/03/04 09:47:07;;;;;;;19.13;10.80;;;9.00;73.10;;;;;;6252662;22;20154;-91
2022/03/04 09:49:36;;;;;;;20.70;11.20;;;8.90;72.30;;;;;;6253496;22;20242;-90
2022/03/04 09:52:08;;;;;;;18.67;12.17;;;9.00;73.20;;;;;;6253137;22;20484;-90
2022/03/04 09:54:36;;;;;;;21.63;11.63;;;9.20;72.50;;;;;;6253059;22;20146;-90
2022/03/04 09:57:02;;;;;;;19.37;11.60;;;9.20;71.10;;;;;;6252908;22;20162;-91
2022/03/04 09:59:30;;;;;;;17.97;10.60;;;9.40;69.60;;;;;;6254242;22;20181;-90
2022/03/04 10:02:00;;;;;;;20.47;11.27;;;9.60;69.20;;;;;;6251770;22;20529;-91
2022/03/04 10:04:28;;;;;;;18.47;10.87;;;9.40;69.80;;;;;;6251887;22;20237;-92
2022/03/04 10:06:55;;;;;;;20.70;11.80;;;9.40;71.30;;;;;;6247843;22;20174;-89
2022/03/04 10:09:43;;;;;;;17.53;11.10;;;9.40;71.90;;;;;;6252636;22;20150;-90
2022/03/04 10:12:14;;;;;;;24.47;12.07;;;9.40;71.70;;;;;;6252430;22;20233;-91
2022/03/04 10:15:23;;;;;;;19.17;11.40;;;9.50;71.50;;;;;;6249916;22;20572;-90
2022/03/04 10:18:04;;;;;;;18.50;11.63;;;9.60;70.90;;;;;;6251845;22;20571;-90
2022/03/04 10:20:38;;;;;;;19.43;11.67;;;9.70;68.90;;;;;;6251546;22;20194;-89
2022/03/04 10:23:19;;;;;;;19.50;11.07;;;9.70;68.30;;;;;;6251715;22;20166;-90
2022/03/04 10:25:47;;;;;;;17.10;10.63;;;9.80;70.10;;;;;;6251707;22;20142;-90
2022/03/04 10:28:22;;;;;;;19.60;10.57;;;9.90;68.10;;;;;;6249876;22;20150;-89
2022/03/04 10:30:49;;;;;;;17.90;10.37;;;9.80;67.40;;;;;;6248611;22;20240;-90
2022/03/04 10:33:30;;;;;;;18.67;11.30;;;10.10;65.80;;;;;;6251424;22;20155;-89
2022/03/04 10:36:14;;;;;;;19.30;10.57;;;10.40;64.70;;;;;;6251463;22;20147;-88
2022/03/04 10:38:41;;;;;;;23.47;12.00;;;10.50;64.00;;;;;;6251389;22;20146;-89
2022/03/04 10:41:22;;;;;;;26.13;12.53;;;10.60;64.10;;;;;;6251524;22;20158;-89
2022/03/04 10:43:48;;;;;;;18.73;10.87;;;10.60;64.30;;;;;;6251658;22;20163;-89
2022/03/04 10:46:24;;;;;;;19.33;11.47;;;10.70;63.30;;;;;;6251677;22;20663;-90
2022/03/04 10:48:54;;;;;;;18.83;11.50;;;10.80;63.80;;;;;;6252172;22;20154;-89
2022/03/04 10:51:37;;;;;;;22.97;12.60;;;10.60;64.60;;;;;;6252466;22;20467;-89
2022/03/04 10:54:14;;;;;;;22.90;13.03;;;10.70;64.00;;;;;;6245301;22;20154;-89
2022/03/04 10:56:56;;;;;;;22.20;12.83;;;11.00;62.40;;;;;;6251604;22;20199;-90
2022/03/04 10:59:24;;;;;;;18.33;11.53;;;11.10;62.50;;;;;;6251149;22;20257;-89
2022/03/04 11:01:55;;;;;;;19.67;11.57;;;11.00;63.30;;;;;;6251524;22;20158;-89
2022/03/04 11:04:21;;;;;;;19.40;11.33;;;11.20;62.90;;;;;;6251503;22;20177;-90
2022/03/04 11:06:49;;;;;;;19.93;11.23;;;11.90;63.30;;;;;;6251433;22;20205;-90
2022/03/04 11:09:24;;;;;;;19.10;12.03;;;13.10;61.80;;;;;;6251476;22;20157;-90
2022/03/04 11:11:52;;;;;;;17.27;11.50;;;14.40;59.70;;;;;;6250753;22;20150;-89
2022/03/04 11:14:21;;;;;;;16.10;11.13;;;15.40;58.00;;;;;;6251682;22;20610;-90
2022/03/04 11:16:49;;;;;;;19.97;12.53;;;16.70;56.10;;;;;;6251217;22;20182;-91
2022/03/04 11:19:22;;;;;;;18.63;12.03;;;17.60;53.30;;;;;;6251928;22;20614;-91
2022/03/04 11:21:51;;;;;;;25.50;17.13;;;18.60;51.70;;;;;;6251354;22;20143;-91
2022/03/04 11:24:17;;;;;;;21.20;13.23;;;19.30;51.10;;;;;;6251308;22;20146;-90
2022/03/04 13:44:34;;;;;;;15.27;11.48;;;31.20;36.10;;;;;;6308758;22;20261;-90
2022/03/04 13:47:07;;;;;;;11.88;9.60;;;31.40;36.00;;;;;;6281495;22;20462;-90
2022/03/04 13:49:46;;;;;;;12.77;11.48;;;31.10;36.10;;;;;;6281666;22;20142;-90
2022/03/04 13:52:18;;;;;;;14.07;11.07;;;31.40;36.50;;;;;;6308730;22;20161;-90
2022/03/04 13:54:59;;;;;;;13.52;11.30;;;30.60;37.10;;;;;;6256275;22;20161;-90
2022/03/04 13:57:27;;;;;;;13.35;11.45;;;30.90;37.00;;;;;;6282012;22;20138;-91
2022/03/04 14:00:16;;;;;;;12.20;10.23;;;31.30;36.30;;;;;;6283895;22;20280;-90
2022/03/04 14:02:51;;;;;;;12.45;11.15;;;31.80;35.90;;;;;;6284426;22;20146;-91
2022/03/04 14:05:34;;;;;;;11.45;10.25;;;31.70;35.60;;;;;;6285059;22;20469;-91
2022/03/04 14:08:28;;;;;;;11.63;10.48;;;32.40;35.70;;;;;;6283099;22;20142;-90
2022/03/04 14:10:59;;;;;;;13.15;11.70;;;32.10;35.30;;;;;;6283002;22;20138;-91
2022/03/04 14:13:27;;;;;;;11.90;9.80;;;31.20;35.90;;;;;;6283199;22;20165;-91
2022/03/04 14:15:53;;;;;;;12.63;10.30;;;31.80;35.40;;;;;;6282409;22;20158;-91
2022/03/04 14:18:26;;;;;;;13.02;11.02;;;32.10;34.80;;;;;;6282832;22;20172;-90
2022/03/04 14:20:53;;;;;;;11.45;10.25;;;31.80;34.80;;;;;;6277864;22;20296;-92
2022/03/04 14:23:22;;;;;;;11.32;10.02;;;32.30;34.90;;;;;;6282992;22;20243;-92
2022/03/04 14:26:03;;;;;;;13.43;10.52;;;31.80;35.30;;;;;;6283788;22;20600;-92
2022/03/04 14:28:29;;;;;;;12.10;9.93;;;31.50;35.30;;;;;;6282965;22;20146;-92
2022/03/04 14:30:58;;;;;;;12.27;10.65;;;30.80;35.00;;;;;;6282712;22;20168;-92
2022/03/04 14:33:36;;;;;;;12.90;10.77;;;31.50;35.00;;;;;;6282822;22;20146;-92
2022/03/04 14:36:02;;;;;;;12.95;10.30;;;31.00;35.30;;;;;;6282104;22;20181;-91
2022/03/04 14:38:31;;;;;;;16.50;9.75;;;31.10;34.90;;;;;;6286668;22;20153;-91
2022/03/04 14:40:56;;;;;;;11.70;9.63;;;31.30;35.10;;;;;;6280746;22;20197;-92
2022/03/04 14:43:24;;;;;;;13.60;10.00;;;31.30;35.20;;;;;;6253462;22;20166;-92
2022/03/04 14:46:04;;;;;;;;;;;;;;;;;;;;;
2022/03/04 14:48:32;;;;;;;13.73;9.98;;;30.70;35.30;;;;;;6279068;22;20226;-91
2022/03/04 14:51:01;;;;;;;12.48;11.18;;;29.10;36.20;;;;;;6227099;22;20159;-92
2022/03/04 14:53:30;;;;;;;14.75;11.00;;;28.10;36.00;;;;;;6252732;22;20682;-92
2022/03/04 14:55:55;;;;;;;12.50;11.05;;;26.70;37.30;;;;;;6252606;22;20149;-91
2022/03/04 14:58:23;;;;;;;15.97;10.20;;;26.20;37.10;;;;;;6252089;22;20150;-91
2022/03/04 15:00:50;;;;;;;14.77;10.53;;;25.30;37.70;;;;;;6251487;22;20186;-91
2022/03/04 15:03:34;;;;;;;12.80;10.20;;;24.10;38.30;;;;;;6251967;22;20169;-91
2022/03/04 15:05:59;;;;;;;15.10;10.80;;;23.50;38.70;;;;;;6252768;22;20536;-91
2022/03/04 15:08:25;;;;;;;16.10;10.60;;;23.50;38.60;;;;;;6252591;22;20150;-90